HAF212 LGML-LGSR
Flight info
| Callsign | HAF212 |
|---|---|
| Flight time | 0h 22m |
| Altitude | 2500 |
| Route | DIRECT FLIGHT |
| Aircraft | CL41/M-GPS/C |
Departure
| Time | 2026-04-21 15:16 |
|---|---|
| Airport | Milos Airport (LGML) |
Arrival
| Time | 2026-04-21 15:38 |
|---|---|
| Airport | Santorini International Airport (LGSR) |
| Time | Latitude | Longitude | Altitude | Speed | Heading |
|---|---|---|---|---|---|
| 2026-04-21 15:16 | 36.66146 | 24.53442 | 1665 ft | 162 kts | 130° |
| 2026-04-21 15:16 | 36.65828 | 24.54046 | 1694 ft | 159 kts | 127° |
| 2026-04-21 15:17 | 36.65300 | 24.55230 | 1741 ft | 156 kts | 117° |
| 2026-04-21 15:17 | 36.64905 | 24.56505 | 1782 ft | 159 kts | 112° |
| 2026-04-21 15:17 | 36.64625 | 24.57852 | 1819 ft | 160 kts | 102° |
| 2026-04-21 15:17 | 36.64467 | 24.59202 | 1939 ft | 157 kts | 104° |
| 2026-04-21 15:18 | 36.64176 | 24.60507 | 2018 ft | 156 kts | 112° |
| 2026-04-21 15:18 | 36.63883 | 24.61803 | 2098 ft | 157 kts | 108° |
| 2026-04-21 15:18 | 36.63625 | 24.63145 | 2050 ft | 166 kts | 107° |
| 2026-04-21 15:18 | 36.63374 | 24.64570 | 2016 ft | 167 kts | 104° |
| 2026-04-21 15:19 | 36.63192 | 24.65991 | 2080 ft | 167 kts | 101° |
| 2026-04-21 15:19 | 36.62985 | 24.67388 | 2152 ft | 163 kts | 116° |
| 2026-04-21 15:19 | 36.62577 | 24.68698 | 2219 ft | 161 kts | 111° |
| 2026-04-21 15:19 | 36.62236 | 24.70024 | 2248 ft | 161 kts | 111° |
| 2026-04-21 15:20 | 36.61905 | 24.71368 | 2225 ft | 166 kts | 108° |
| 2026-04-21 15:20 | 36.61724 | 24.72181 | 2169 ft | 170 kts | 110° |
| 2026-04-21 15:21 | 36.61549 | 24.73092 | 2236 ft | 166 kts | 103° |
| 2026-04-21 15:21 | 36.61360 | 24.74503 | 2190 ft | 170 kts | 104° |
| 2026-04-21 15:21 | 36.61066 | 24.75931 | 2165 ft | 168 kts | 111° |
| 2026-04-21 15:21 | 36.60706 | 24.77371 | 1952 ft | 182 kts | 108° |
| 2026-04-21 15:22 | 36.60432 | 24.78849 | 2044 ft | 173 kts | 107° |
| 2026-04-21 15:22 | 36.60139 | 24.80327 | 1992 ft | 175 kts | 108° |
| 2026-04-21 15:22 | 36.59854 | 24.81764 | 2020 ft | 169 kts | 109° |
| 2026-04-21 15:22 | 36.59555 | 24.83185 | 1929 ft | 173 kts | 108° |
| 2026-04-21 15:23 | 36.59236 | 24.84609 | 1985 ft | 169 kts | 111° |
| 2026-04-21 15:23 | 36.58898 | 24.86022 | 1942 ft | 172 kts | 114° |
| 2026-04-21 15:23 | 36.58402 | 24.87368 | 1903 ft | 170 kts | 123° |
| 2026-04-21 15:23 | 36.57865 | 24.88699 | 1826 ft | 174 kts | 119° |
| 2026-04-21 15:24 | 36.57367 | 24.90057 | 1842 ft | 171 kts | 117° |
| 2026-04-21 15:24 | 36.56944 | 24.91436 | 1812 ft | 171 kts | 113° |
| 2026-04-21 15:24 | 36.56526 | 24.92810 | 1797 ft | 171 kts | 115° |
| 2026-04-21 15:24 | 36.56113 | 24.94176 | 1828 ft | 168 kts | 113° |
| 2026-04-21 15:25 | 36.55759 | 24.95579 | 1816 ft | 168 kts | 109° |
| 2026-04-21 15:25 | 36.55445 | 24.96939 | 1930 ft | 160 kts | 110° |
| 2026-04-21 15:25 | 36.55181 | 24.98232 | 2095 ft | 153 kts | 106° |
| 2026-04-21 15:25 | 36.54949 | 24.99507 | 2216 ft | 148 kts | 107° |
| 2026-04-21 15:26 | 36.54711 | 25.00714 | 2466 ft | 140 kts | 108° |
| 2026-04-21 15:26 | 36.54391 | 25.01888 | 2408 ft | 152 kts | 113° |
| 2026-04-21 15:26 | 36.54031 | 25.03160 | 2351 ft | 159 kts | 112° |
| 2026-04-21 15:26 | 36.53754 | 25.04488 | 2414 ft | 159 kts | 104° |
| 2026-04-21 15:27 | 36.53568 | 25.05862 | 2417 ft | 161 kts | 103° |
| 2026-04-21 15:27 | 36.53370 | 25.07252 | 2399 ft | 164 kts | 104° |
| 2026-04-21 15:27 | 36.53198 | 25.08646 | 2456 ft | 163 kts | 103° |
| 2026-04-21 15:27 | 36.53020 | 25.10072 | 2377 ft | 168 kts | 104° |
| 2026-04-21 15:28 | 36.52804 | 25.11547 | 2223 ft | 175 kts | 104° |
| 2026-04-21 15:28 | 36.52592 | 25.13028 | 2206 ft | 171 kts | 102° |
| 2026-04-21 15:28 | 36.52360 | 25.14462 | 2130 ft | 174 kts | 105° |
| 2026-04-21 15:28 | 36.52088 | 25.15889 | 2235 ft | 163 kts | 108° |
| 2026-04-21 15:29 | 36.51832 | 25.17269 | 2199 ft | 165 kts | 104° |
| 2026-04-21 15:29 | 36.51559 | 25.18612 | 2228 ft | 163 kts | 110° |
| 2026-04-21 15:29 | 36.51202 | 25.19969 | 2281 ft | 163 kts | 114° |
| 2026-04-21 15:29 | 36.50872 | 25.21285 | 2359 ft | 162 kts | 109° |
| 2026-04-21 15:30 | 36.50633 | 25.22675 | 2269 ft | 162 kts | 104° |
| 2026-04-21 15:30 | 36.50436 | 25.24023 | 2222 ft | 160 kts | 107° |
| 2026-04-21 15:30 | 36.50176 | 25.25356 | 2199 ft | 154 kts | 114° |
| 2026-04-21 15:30 | 36.49671 | 25.26481 | 2149 ft | 150 kts | 132° |
| 2026-04-21 15:31 | 36.49068 | 25.27534 | 2151 ft | 150 kts | 131° |
| 2026-04-21 15:31 | 36.48465 | 25.28587 | 2167 ft | 149 kts | 128° |
| 2026-04-21 15:31 | 36.47890 | 25.29679 | 2165 ft | 148 kts | 133° |
| 2026-04-21 15:31 | 36.47245 | 25.30676 | 2139 ft | 147 kts | 141° |
| 2026-04-21 15:32 | 36.46470 | 25.31487 | 2087 ft | 146 kts | 146° |
| 2026-04-21 15:32 | 36.45669 | 25.32233 | 2067 ft | 144 kts | 152° |
| 2026-04-21 15:32 | 36.44824 | 25.32871 | 2042 ft | 143 kts | 155° |
| 2026-04-21 15:32 | 36.43982 | 25.33559 | 2036 ft | 147 kts | 147° |
| 2026-04-21 15:33 | 36.43246 | 25.34491 | 1987 ft | 155 kts | 134° |
| 2026-04-21 15:33 | 36.42616 | 25.35582 | 1873 ft | 157 kts | 133° |
| 2026-04-21 15:33 | 36.41999 | 25.36708 | 1780 ft | 159 kts | 128° |
| 2026-04-21 15:33 | 36.41373 | 25.37780 | 1833 ft | 148 kts | 135° |
| 2026-04-21 15:34 | 36.40696 | 25.38728 | 1859 ft | 143 kts | 137° |
| 2026-04-21 15:34 | 36.40229 | 25.39757 | 1996 ft | 138 kts | 99° |
| 2026-04-21 15:34 | 36.40281 | 25.41027 | 1728 ft | 157 kts | 83° |
| 2026-04-21 15:34 | 36.40311 | 25.42421 | 1436 ft | 170 kts | 107° |
| 2026-04-21 15:35 | 36.39673 | 25.43572 | 1514 ft | 159 kts | 141° |
| 2026-04-21 15:35 | 36.38953 | 25.44644 | 1415 ft | 163 kts | 123° |
| 2026-04-21 15:35 | 36.38553 | 25.45806 | 1319 ft | 131 kts | 115° |
| 2026-04-21 15:35 | 36.38251 | 25.46814 | 1081 ft | 123 kts | 111° |
| 2026-04-21 15:36 | 36.38221 | 25.47824 | 877 ft | 117 kts | 77° |
| 2026-04-21 15:36 | 36.38711 | 25.48622 | 697 ft | 113 kts | 12° |
| 2026-04-21 15:36 | 36.39473 | 25.48666 | 552 ft | 111 kts | 347° |
| 2026-04-21 15:36 | 36.40237 | 25.48612 | 546 ft | 107 kts | 352° |
| 2026-04-21 15:37 | 36.40983 | 25.48608 | 596 ft | 107 kts | 357° |
| 2026-04-21 15:37 | 36.41764 | 25.48608 | 697 ft | 113 kts | 352° |
| 2026-04-21 15:37 | 36.42479 | 25.48466 | 726 ft | 92 kts | 300° |
| 2026-04-21 15:37 | 36.42481 | 25.47716 | 660 ft | 103 kts | 246° |
| 2026-04-21 15:38 | 36.41988 | 25.47073 | 416 ft | 113 kts | 183° |
| 2026-04-21 15:38 | 36.41349 | 25.47299 | 212 ft | 88 kts | 163° |
| 2026-04-21 15:38 | 36.40774 | 25.47526 | 125 ft | 78 kts | 161° |
| 2026-04-21 15:38 | 36.40509 | 25.47634 | 113 ft | 19 kts | 181° |
| 2026-04-21 15:39 | 36.40442 | 25.47533 | 117 ft | 16 kts | 249° |
| 2026-04-21 15:39 | 36.40374 | 25.47433 | 116 ft | 20 kts | 186° |
| 2026-04-21 15:39 | 36.40228 | 25.47464 | 110 ft | 15 kts | 161° |
| 2026-04-21 15:39 | 36.40149 | 25.47466 | 109 ft | 5 kts | 198° |
| 2026-04-21 15:40 | 36.40143 | 25.47471 | 109 ft | 0 kts | 78° |